sensor_id;sensor_type;location;lat;lon;timestamp;P1;durP1;ratioP1;P2;durP2;ratioP2
62123;SDS011;48110;47.532;19.078;2023-08-21T00:02:35;12.68;;;9.75;;
62123;SDS011;48110;47.532;19.078;2023-08-21T00:05:39;16.00;;;10.30;;
62123;SDS011;48110;47.532;19.078;2023-08-21T00:08:42;17.70;;;10.07;;
62123;SDS011;48110;47.532;19.078;2023-08-21T00:11:45;11.93;;;9.60;;
62123;SDS011;48110;47.532;19.078;2023-08-21T00:14:48;18.20;;;10.52;;
62123;SDS011;48110;47.532;19.078;2023-08-21T00:17:51;12.68;;;9.98;;
62123;SDS011;48110;47.532;19.078;2023-08-21T00:20:53;12.35;;;9.98;;
62123;SDS011;48110;47.532;19.078;2023-08-21T00:23:56;11.98;;;9.50;;
62123;SDS011;48110;47.532;19.078;2023-08-21T00:26:59;14.45;;;9.98;;
62123;SDS011;48110;47.532;19.078;2023-08-21T00:30:02;11.25;;;9.77;;
62123;SDS011;48110;47.532;19.078;2023-08-21T00:33:05;12.95;;;10.00;;
62123;SDS011;48110;47.532;19.078;2023-08-21T00:36:08;11.73;;;9.27;;
62123;SDS011;48110;47.532;19.078;2023-08-21T00:39:11;12.65;;;10.00;;
62123;SDS011;48110;47.532;19.078;2023-08-21T00:42:13;13.93;;;9.65;;
62123;SDS011;48110;47.532;19.078;2023-08-21T00:45:16;11.15;;;9.63;;
62123;SDS011;48110;47.532;19.078;2023-08-21T00:48:19;12.73;;;9.75;;
62123;SDS011;48110;47.532;19.078;2023-08-21T00:51:22;12.88;;;10.57;;
62123;SDS011;48110;47.532;19.078;2023-08-21T00:54:25;14.30;;;9.95;;
62123;SDS011;48110;47.532;19.078;2023-08-21T00:57:28;11.75;;;10.50;;
62123;SDS011;48110;47.532;19.078;2023-08-21T01:00:32;15.30;;;10.00;;
62123;SDS011;48110;47.532;19.078;2023-08-21T01:03:36;12.05;;;9.98;;
62123;SDS011;48110;47.532;19.078;2023-08-21T01:06:39;13.45;;;10.25;;
62123;SDS011;48110;47.532;19.078;2023-08-21T01:10:03;11.20;;;9.35;;
62123;SDS011;48110;47.532;19.078;2023-08-21T01:13:16;12.65;;;10.70;;
62123;SDS011;48110;47.532;19.078;2023-08-21T01:16:26;11.88;;;10.13;;
62123;SDS011;48110;47.532;19.078;2023-08-21T01:19:41;13.23;;;10.07;;
62123;SDS011;48110;47.532;19.078;2023-08-21T01:22:45;12.10;;;10.70;;
62123;SDS011;48110;47.532;19.078;2023-08-21T01:25:48;17.00;;;11.18;;
62123;SDS011;48110;47.532;19.078;2023-08-21T01:28:51;15.10;;;11.65;;
62123;SDS011;48110;47.532;19.078;2023-08-21T01:35:20;17.20;;;11.35;;
62123;SDS011;48110;47.532;19.078;2023-08-21T01:38:25;12.35;;;10.98;;
62123;SDS011;48110;47.532;19.078;2023-08-21T01:41:27;12.18;;;10.50;;
62123;SDS011;48110;47.532;19.078;2023-08-21T01:44:30;12.88;;;11.07;;
62123;SDS011;48110;47.532;19.078;2023-08-21T01:47:33;17.65;;;11.60;;
62123;SDS011;48110;47.532;19.078;2023-08-21T01:50:36;15.63;;;11.12;;
62123;SDS011;48110;47.532;19.078;2023-08-21T01:53:39;13.13;;;11.32;;
62123;SDS011;48110;47.532;19.078;2023-08-21T01:56:43;12.43;;;11.10;;
62123;SDS011;48110;47.532;19.078;2023-08-21T01:59:45;12.20;;;11.00;;
62123;SDS011;48110;47.532;19.078;2023-08-21T02:02:48;11.93;;;10.70;;
62123;SDS011;48110;47.532;19.078;2023-08-21T02:05:54;12.55;;;11.02;;
62123;SDS011;48110;47.532;19.078;2023-08-21T02:09:00;12.23;;;10.90;;
62123;SDS011;48110;47.532;19.078;2023-08-21T02:12:03;13.90;;;10.50;;
62123;SDS011;48110;47.532;19.078;2023-08-21T02:15:06;11.80;;;10.25;;
62123;SDS011;48110;47.532;19.078;2023-08-21T02:18:09;13.18;;;10.88;;
62123;SDS011;48110;47.532;19.078;2023-08-21T02:21:13;13.65;;;11.32;;
62123;SDS011;48110;47.532;19.078;2023-08-21T02:24:16;12.07;;;10.43;;
62123;SDS011;48110;47.532;19.078;2023-08-21T02:27:19;13.60;;;10.80;;
62123;SDS011;48110;47.532;19.078;2023-08-21T02:30:22;12.75;;;11.40;;
62123;SDS011;48110;47.532;19.078;2023-08-21T02:33:27;14.43;;;10.52;;
62123;SDS011;48110;47.532;19.078;2023-08-21T02:36:30;13.95;;;10.77;;
62123;SDS011;48110;47.532;19.078;2023-08-21T02:39:33;14.07;;;10.70;;
62123;SDS011;48110;47.532;19.078;2023-08-21T02:42:36;12.45;;;10.80;;
62123;SDS011;48110;47.532;19.078;2023-08-21T02:45:40;12.27;;;10.70;;
62123;SDS011;48110;47.532;19.078;2023-08-21T02:48:44;13.65;;;9.98;;
62123;SDS011;48110;47.532;19.078;2023-08-21T02:51:47;12.90;;;11.02;;
62123;SDS011;48110;47.532;19.078;2023-08-21T02:54:50;14.98;;;10.05;;
62123;SDS011;48110;47.532;19.078;2023-08-21T02:57:53;13.27;;;11.10;;
62123;SDS011;48110;47.532;19.078;2023-08-21T03:00:55;15.35;;;10.43;;
62123;SDS011;48110;47.532;19.078;2023-08-21T03:03:58;12.75;;;10.52;;
62123;SDS011;48110;47.532;19.078;2023-08-21T03:07:01;12.30;;;11.02;;
62123;SDS011;48110;47.532;19.078;2023-08-21T03:10:04;13.88;;;10.65;;
62123;SDS011;48110;47.532;19.078;2023-08-21T03:13:07;11.85;;;10.73;;
62123;SDS011;48110;47.532;19.078;2023-08-21T03:16:10;20.67;;;10.73;;
62123;SDS011;48110;47.532;19.078;2023-08-21T03:19:13;12.10;;;10.90;;
62123;SDS011;48110;47.532;19.078;2023-08-21T03:22:15;15.68;;;10.82;;
62123;SDS011;48110;47.532;19.078;2023-08-21T03:25:19;13.68;;;10.95;;
62123;SDS011;48110;47.532;19.078;2023-08-21T03:28:21;14.75;;;11.35;;
62123;SDS011;48110;47.532;19.078;2023-08-21T03:31:24;15.98;;;10.40;;
62123;SDS011;48110;47.532;19.078;2023-08-21T03:34:27;14.05;;;11.30;;
62123;SDS011;48110;47.532;19.078;2023-08-21T03:37:31;12.32;;;10.95;;
62123;SDS011;48110;47.532;19.078;2023-08-21T03:40:34;13.52;;;10.48;;
62123;SDS011;48110;47.532;19.078;2023-08-21T03:43:37;14.85;;;10.70;;
62123;SDS011;48110;47.532;19.078;2023-08-21T03:46:39;14.27;;;11.00;;
62123;SDS011;48110;47.532;19.078;2023-08-21T03:49:43;14.15;;;10.80;;
62123;SDS011;48110;47.532;19.078;2023-08-21T03:52:46;12.57;;;11.07;;
62123;SDS011;48110;47.532;19.078;2023-08-21T03:55:49;13.38;;;11.57;;
62123;SDS011;48110;47.532;19.078;2023-08-21T03:58:51;15.68;;;11.98;;
62123;SDS011;48110;47.532;19.078;2023-08-21T04:01:54;14.38;;;12.10;;
62123;SDS011;48110;47.532;19.078;2023-08-21T04:04:57;13.55;;;11.60;;
62123;SDS011;48110;47.532;19.078;2023-08-21T04:08:00;14.25;;;11.50;;
62123;SDS011;48110;47.532;19.078;2023-08-21T04:11:02;12.95;;;11.43;;
62123;SDS011;48110;47.532;19.078;2023-08-21T04:14:06;13.20;;;11.48;;
62123;SDS011;48110;47.532;19.078;2023-08-21T04:17:09;15.27;;;11.48;;
62123;SDS011;48110;47.532;19.078;2023-08-21T04:20:12;12.60;;;11.27;;
62123;SDS011;48110;47.532;19.078;2023-08-21T04:23:15;16.67;;;12.80;;
62123;SDS011;48110;47.532;19.078;2023-08-21T04:26:17;15.20;;;11.95;;
62123;SDS011;48110;47.532;19.078;2023-08-21T04:29:20;18.42;;;13.00;;
62123;SDS011;48110;47.532;19.078;2023-08-21T04:32:23;17.12;;;11.98;;
62123;SDS011;48110;47.532;19.078;2023-08-21T04:35:26;21.83;;;12.77;;
62123;SDS011;48110;47.532;19.078;2023-08-21T04:38:29;18.45;;;12.37;;
62123;SDS011;48110;47.532;19.078;2023-08-21T04:41:32;14.80;;;11.73;;
62123;SDS011;48110;47.532;19.078;2023-08-21T04:44:35;14.18;;;12.43;;
62123;SDS011;48110;47.532;19.078;2023-08-21T04:47:38;17.75;;;12.37;;
62123;SDS011;48110;47.532;19.078;2023-08-21T04:50:41;14.38;;;12.27;;
62123;SDS011;48110;47.532;19.078;2023-08-21T04:53:44;15.43;;;12.37;;
62123;SDS011;48110;47.532;19.078;2023-08-21T04:56:47;21.77;;;13.50;;
62123;SDS011;48110;47.532;19.078;2023-08-21T04:59:51;15.80;;;11.60;;
62123;SDS011;48110;47.532;19.078;2023-08-21T05:02:54;17.20;;;12.32;;
62123;SDS011;48110;47.532;19.078;2023-08-21T05:05:57;19.37;;;12.80;;
62123;SDS011;48110;47.532;19.078;2023-08-21T05:09:00;14.73;;;11.80;;
62123;SDS011;48110;47.532;19.078;2023-08-21T05:12:04;15.15;;;12.45;;
62123;SDS011;48110;47.532;19.078;2023-08-21T05:15:08;21.15;;;12.77;;
62123;SDS011;48110;47.532;19.078;2023-08-21T05:18:11;14.30;;;11.98;;
62123;SDS011;48110;47.532;19.078;2023-08-21T05:21:14;21.20;;;16.85;;
62123;SDS011;48110;47.532;19.078;2023-08-21T05:24:17;15.40;;;11.43;;
62123;SDS011;48110;47.532;19.078;2023-08-21T05:27:20;14.95;;;12.63;;
62123;SDS011;48110;47.532;19.078;2023-08-21T05:30:26;12.85;;;11.38;;
62123;SDS011;48110;47.532;19.078;2023-08-21T05:39:11;17.73;;;11.63;;
62123;SDS011;48110;47.532;19.078;2023-08-21T05:42:13;14.82;;;10.77;;
62123;SDS011;48110;47.532;19.078;2023-08-21T05:45:16;16.08;;;11.38;;
62123;SDS011;48110;47.532;19.078;2023-08-21T05:48:19;15.85;;;11.35;;
62123;SDS011;48110;47.532;19.078;2023-08-21T05:51:22;13.38;;;10.98;;
62123;SDS011;48110;47.532;19.078;2023-08-21T05:54:25;18.52;;;10.85;;
62123;SDS011;48110;47.532;19.078;2023-08-21T05:57:29;12.25;;;10.15;;
62123;SDS011;48110;47.532;19.078;2023-08-21T06:00:33;12.02;;;10.57;;
62123;SDS011;48110;47.532;19.078;2023-08-21T06:03:37;13.45;;;10.02;;
62123;SDS011;48110;47.532;19.078;2023-08-21T06:06:40;16.15;;;10.52;;
62123;SDS011;48110;47.532;19.078;2023-08-21T06:09:43;15.98;;;9.80;;
62123;SDS011;48110;47.532;19.078;2023-08-21T06:12:46;14.00;;;9.25;;
62123;SDS011;48110;47.532;19.078;2023-08-21T06:15:50;16.10;;;9.25;;
62123;SDS011;48110;47.532;19.078;2023-08-21T06:18:54;11.75;;;9.15;;
62123;SDS011;48110;47.532;19.078;2023-08-21T06:21:57;15.60;;;9.30;;
62123;SDS011;48110;47.532;19.078;2023-08-21T06:25:00;13.35;;;9.00;;
62123;SDS011;48110;47.532;19.078;2023-08-21T06:28:03;13.27;;;9.52;;
62123;SDS011;48110;47.532;19.078;2023-08-21T06:31:08;11.95;;;8.88;;
62123;SDS011;48110;47.532;19.078;2023-08-21T06:34:11;10.57;;;8.50;;
62123;SDS011;48110;47.532;19.078;2023-08-21T06:37:14;11.93;;;8.75;;
62123;SDS011;48110;47.532;19.078;2023-08-21T06:40:17;14.55;;;9.80;;
62123;SDS011;48110;47.532;19.078;2023-08-21T06:43:21;14.02;;;9.25;;
62123;SDS011;48110;47.532;19.078;2023-08-21T06:46:24;12.68;;;8.52;;
62123;SDS011;48110;47.532;19.078;2023-08-21T06:49:27;10.18;;;8.40;;
62123;SDS011;48110;47.532;19.078;2023-08-21T06:52:30;11.73;;;8.85;;
62123;SDS011;48110;47.532;19.078;2023-08-21T06:55:32;15.75;;;8.25;;
62123;SDS011;48110;47.532;19.078;2023-08-21T06:58:35;12.95;;;7.70;;
62123;SDS011;48110;47.532;19.078;2023-08-21T07:01:37;10.18;;;8.05;;
62123;SDS011;48110;47.532;19.078;2023-08-21T07:04:40;9.73;;;6.87;;
62123;SDS011;48110;47.532;19.078;2023-08-21T07:07:43;7.93;;;6.68;;
62123;SDS011;48110;47.532;19.078;2023-08-21T07:10:46;14.13;;;6.57;;
62123;SDS011;48110;47.532;19.078;2023-08-21T07:13:49;7.07;;;6.35;;
62123;SDS011;48110;47.532;19.078;2023-08-21T07:16:51;9.38;;;7.03;;
62123;SDS011;48110;47.532;19.078;2023-08-21T07:19:54;12.20;;;7.00;;
62123;SDS011;48110;47.532;19.078;2023-08-21T07:22:57;11.60;;;6.62;;
62123;SDS011;48110;47.532;19.078;2023-08-21T07:26:03;13.32;;;6.32;;
62123;SDS011;48110;47.532;19.078;2023-08-21T07:29:07;9.95;;;6.30;;
62123;SDS011;48110;47.532;19.078;2023-08-21T07:32:10;12.30;;;6.03;;
62123;SDS011;48110;47.532;19.078;2023-08-21T07:35:13;14.15;;;6.28;;
62123;SDS011;48110;47.532;19.078;2023-08-21T07:38:16;10.50;;;6.30;;
62123;SDS011;48110;47.532;19.078;2023-08-21T07:41:18;9.25;;;6.10;;
62123;SDS011;48110;47.532;19.078;2023-08-21T07:44:21;7.47;;;6.15;;
62123;SDS011;48110;47.532;19.078;2023-08-21T07:47:26;11.95;;;6.18;;
62123;SDS011;48110;47.532;19.078;2023-08-21T07:50:29;10.48;;;5.97;;
62123;SDS011;48110;47.532;19.078;2023-08-21T07:53:32;14.65;;;6.47;;
62123;SDS011;48110;47.532;19.078;2023-08-21T07:56:37;8.25;;;5.65;;
62123;SDS011;48110;47.532;19.078;2023-08-21T07:59:42;15.15;;;6.55;;
62123;SDS011;48110;47.532;19.078;2023-08-21T08:02:44;7.70;;;6.07;;
62123;SDS011;48110;47.532;19.078;2023-08-21T08:05:47;8.73;;;6.22;;
62123;SDS011;48110;47.532;19.078;2023-08-21T08:08:57;7.53;;;5.55;;
62123;SDS011;48110;47.532;19.078;2023-08-21T08:11:59;10.70;;;6.35;;
62123;SDS011;48110;47.532;19.078;2023-08-21T08:15:02;14.63;;;5.93;;
62123;SDS011;48110;47.532;19.078;2023-08-21T08:18:06;10.52;;;6.80;;
62123;SDS011;48110;47.532;19.078;2023-08-21T08:21:13;9.75;;;6.35;;
62123;SDS011;48110;47.532;19.078;2023-08-21T08:24:16;14.07;;;6.60;;
62123;SDS011;48110;47.532;19.078;2023-08-21T08:27:19;9.55;;;6.05;;
62123;SDS011;48110;47.532;19.078;2023-08-21T08:30:22;10.88;;;6.25;;
62123;SDS011;48110;47.532;19.078;2023-08-21T08:33:26;7.70;;;5.93;;
62123;SDS011;48110;47.532;19.078;2023-08-21T08:36:29;9.32;;;6.05;;
62123;SDS011;48110;47.532;19.078;2023-08-21T08:39:32;10.77;;;5.87;;
62123;SDS011;48110;47.532;19.078;2023-08-21T08:42:35;14.65;;;6.25;;
62123;SDS011;48110;47.532;19.078;2023-08-21T08:45:39;10.48;;;6.12;;
62123;SDS011;48110;47.532;19.078;2023-08-21T08:48:43;9.40;;;6.05;;
62123;SDS011;48110;47.532;19.078;2023-08-21T08:51:46;13.73;;;5.30;;
62123;SDS011;48110;47.532;19.078;2023-08-21T08:54:51;10.43;;;5.70;;
62123;SDS011;48110;47.532;19.078;2023-08-21T08:57:56;8.80;;;5.70;;
62123;SDS011;48110;47.532;19.078;2023-08-21T09:00:59;7.50;;;5.37;;
62123;SDS011;48110;47.532;19.078;2023-08-21T09:04:02;9.73;;;5.60;;
62123;SDS011;48110;47.532;19.078;2023-08-21T09:07:09;9.27;;;5.05;;
62123;SDS011;48110;47.532;19.078;2023-08-21T09:10:14;23.08;;;5.55;;
62123;SDS011;48110;47.532;19.078;2023-08-21T09:13:18;11.80;;;5.60;;
62123;SDS011;48110;47.532;19.078;2023-08-21T09:16:23;7.20;;;5.30;;
62123;SDS011;48110;47.532;19.078;2023-08-21T09:19:27;8.20;;;5.37;;
62123;SDS011;48110;47.532;19.078;2023-08-21T09:22:30;8.90;;;5.37;;
62123;SDS011;48110;47.532;19.078;2023-08-21T09:25:39;11.55;;;5.60;;
62123;SDS011;48110;47.532;19.078;2023-08-21T09:28:42;11.70;;;5.30;;
62123;SDS011;48110;47.532;19.078;2023-08-21T09:31:45;10.75;;;5.45;;
62123;SDS011;48110;47.532;19.078;2023-08-21T09:34:48;5.90;;;4.72;;
62123;SDS011;48110;47.532;19.078;2023-08-21T09:37:51;8.32;;;5.00;;
62123;SDS011;48110;47.532;19.078;2023-08-21T09:40:57;11.40;;;4.87;;
62123;SDS011;48110;47.532;19.078;2023-08-21T09:44:01;12.55;;;5.10;;
62123;SDS011;48110;47.532;19.078;2023-08-21T09:47:10;8.10;;;5.12;;
62123;SDS011;48110;47.532;19.078;2023-08-21T09:50:14;8.98;;;5.40;;
62123;SDS011;48110;47.532;19.078;2023-08-21T09:53:17;11.15;;;5.40;;
62123;SDS011;48110;47.532;19.078;2023-08-21T09:56:22;9.88;;;5.35;;
62123;SDS011;48110;47.532;19.078;2023-08-21T09:59:24;9.27;;;5.70;;
62123;SDS011;48110;47.532;19.078;2023-08-21T10:02:27;7.68;;;5.40;;
62123;SDS011;48110;47.532;19.078;2023-08-21T10:05:33;10.20;;;5.57;;
62123;SDS011;48110;47.532;19.078;2023-08-21T10:08:38;6.80;;;5.20;;
62123;SDS011;48110;47.532;19.078;2023-08-21T10:14:47;11.18;;;5.85;;
62123;SDS011;48110;47.532;19.078;2023-08-21T10:17:50;7.03;;;5.53;;
62123;SDS011;48110;47.532;19.078;2023-08-21T10:20:53;13.68;;;6.05;;
62123;SDS011;48110;47.532;19.078;2023-08-21T10:23:56;11.02;;;6.70;;
62123;SDS011;48110;47.532;19.078;2023-08-21T10:27:02;7.30;;;6.20;;
62123;SDS011;48110;47.532;19.078;2023-08-21T10:30:12;10.50;;;6.30;;
62123;SDS011;48110;47.532;19.078;2023-08-21T10:33:44;9.93;;;6.65;;
62123;SDS011;48110;47.532;19.078;2023-08-21T10:37:02;8.82;;;6.62;;
62123;SDS011;48110;47.532;19.078;2023-08-21T10:40:07;8.10;;;6.75;;
62123;SDS011;48110;47.532;19.078;2023-08-21T10:43:44;7.15;;;6.22;;
62123;SDS011;48110;47.532;19.078;2023-08-21T10:46:50;8.07;;;6.30;;
62123;SDS011;48110;47.532;19.078;2023-08-21T10:50:04;9.77;;;6.20;;
62123;SDS011;48110;47.532;19.078;2023-08-21T10:53:08;10.95;;;5.90;;
62123;SDS011;48110;47.532;19.078;2023-08-21T10:56:17;11.40;;;5.93;;
62123;SDS011;48110;47.532;19.078;2023-08-21T10:59:19;6.05;;;5.40;;
62123;SDS011;48110;47.532;19.078;2023-08-21T11:02:23;7.85;;;5.50;;
62123;SDS011;48110;47.532;19.078;2023-08-21T11:05:29;7.03;;;4.47;;
62123;SDS011;48110;47.532;19.078;2023-08-21T11:08:33;6.87;;;5.30;;
62123;SDS011;48110;47.532;19.078;2023-08-21T11:11:36;7.93;;;4.78;;
62123;SDS011;48110;47.532;19.078;2023-08-21T11:14:39;11.73;;;4.85;;
62123;SDS011;48110;47.532;19.078;2023-08-21T11:17:50;9.90;;;4.82;;
62123;SDS011;48110;47.532;19.078;2023-08-21T11:21:07;5.25;;;4.60;;
62123;SDS011;48110;47.532;19.078;2023-08-21T11:24:11;4.87;;;4.37;;
62123;SDS011;48110;47.532;19.078;2023-08-21T11:27:15;5.32;;;4.30;;
62123;SDS011;48110;47.532;19.078;2023-08-21T11:30:21;8.73;;;4.43;;
62123;SDS011;48110;47.532;19.078;2023-08-21T11:33:25;7.35;;;4.62;;
62123;SDS011;48110;47.532;19.078;2023-08-21T11:36:29;11.38;;;4.62;;
62123;SDS011;48110;47.532;19.078;2023-08-21T11:39:42;6.10;;;4.65;;
62123;SDS011;48110;47.532;19.078;2023-08-21T11:42:46;6.82;;;4.45;;
62123;SDS011;48110;47.532;19.078;2023-08-21T11:45:48;5.20;;;4.50;;
62123;SDS011;48110;47.532;19.078;2023-08-21T11:49:00;6.95;;;4.70;;
62123;SDS011;48110;47.532;19.078;2023-08-21T11:52:05;7.18;;;4.95;;
62123;SDS011;48110;47.532;19.078;2023-08-21T11:55:08;5.68;;;4.45;;
62123;SDS011;48110;47.532;19.078;2023-08-21T11:58:13;4.35;;;3.95;;
62123;SDS011;48110;47.532;19.078;2023-08-21T12:01:21;8.48;;;4.72;;
62123;SDS011;48110;47.532;19.078;2023-08-21T12:04:25;7.70;;;4.72;;
62123;SDS011;48110;47.532;19.078;2023-08-21T12:07:29;6.50;;;4.35;;
62123;SDS011;48110;47.532;19.078;2023-08-21T12:10:32;9.65;;;4.55;;
62123;SDS011;48110;47.532;19.078;2023-08-21T12:13:34;10.60;;;4.18;;
62123;SDS011;48110;47.532;19.078;2023-08-21T12:16:38;12.40;;;4.65;;
62123;SDS011;48110;47.532;19.078;2023-08-21T12:19:40;6.43;;;4.45;;
62123;SDS011;48110;47.532;19.078;2023-08-21T12:22:44;7.18;;;4.55;;
62123;SDS011;48110;47.532;19.078;2023-08-21T12:25:47;6.00;;;4.37;;
62123;SDS011;48110;47.532;19.078;2023-08-21T12:28:50;8.15;;;4.40;;
62123;SDS011;48110;47.532;19.078;2023-08-21T12:31:52;5.10;;;3.92;;
62123;SDS011;48110;47.532;19.078;2023-08-21T12:34:55;4.53;;;3.92;;
62123;SDS011;48110;47.532;19.078;2023-08-21T12:37:58;7.25;;;4.00;;
62123;SDS011;48110;47.532;19.078;2023-08-21T12:41:01;6.70;;;3.78;;
62123;SDS011;48110;47.532;19.078;2023-08-21T12:44:04;6.62;;;3.60;;
62123;SDS011;48110;47.532;19.078;2023-08-21T12:47:11;5.22;;;3.75;;
62123;SDS011;48110;47.532;19.078;2023-08-21T12:50:14;6.82;;;3.90;;
62123;SDS011;48110;47.532;19.078;2023-08-21T12:53:18;6.28;;;3.80;;
62123;SDS011;48110;47.532;19.078;2023-08-21T12:56:21;5.50;;;3.90;;
62123;SDS011;48110;47.532;19.078;2023-08-21T12:59:24;4.62;;;3.97;;
62123;SDS011;48110;47.532;19.078;2023-08-21T13:02:27;6.00;;;4.10;;
62123;SDS011;48110;47.532;19.078;2023-08-21T13:05:30;6.22;;;4.28;;
62123;SDS011;48110;47.532;19.078;2023-08-21T13:08:33;10.20;;;4.10;;
62123;SDS011;48110;47.532;19.078;2023-08-21T13:11:36;5.00;;;3.60;;
62123;SDS011;48110;47.532;19.078;2023-08-21T13:14:38;5.20;;;3.83;;
62123;SDS011;48110;47.532;19.078;2023-08-21T13:17:41;5.68;;;3.40;;
62123;SDS011;48110;47.532;19.078;2023-08-21T13:20:45;5.65;;;3.40;;
62123;SDS011;48110;47.532;19.078;2023-08-21T13:23:49;6.37;;;3.87;;
62123;SDS011;48110;47.532;19.078;2023-08-21T13:26:52;6.37;;;3.67;;
62123;SDS011;48110;47.532;19.078;2023-08-21T13:29:55;7.15;;;3.67;;
62123;SDS011;48110;47.532;19.078;2023-08-21T13:32:58;4.65;;;3.60;;
62123;SDS011;48110;47.532;19.078;2023-08-21T13:36:01;3.85;;;3.12;;
62123;SDS011;48110;47.532;19.078;2023-08-21T13:39:04;6.90;;;3.28;;
62123;SDS011;48110;47.532;19.078;2023-08-21T13:42:08;5.57;;;3.33;;
62123;SDS011;48110;47.532;19.078;2023-08-21T13:45:12;8.50;;;3.40;;
62123;SDS011;48110;47.532;19.078;2023-08-21T13:48:16;10.32;;;3.60;;
62123;SDS011;48110;47.532;19.078;2023-08-21T13:51:18;12.37;;;3.50;;
62123;SDS011;48110;47.532;19.078;2023-08-21T13:54:23;9.25;;;3.65;;
62123;SDS011;48110;47.532;19.078;2023-08-21T13:57:26;7.90;;;3.65;;
62123;SDS011;48110;47.532;19.078;2023-08-21T14:00:29;6.93;;;3.53;;
62123;SDS011;48110;47.532;19.078;2023-08-21T14:03:32;6.68;;;3.42;;
62123;SDS011;48110;47.532;19.078;2023-08-21T14:06:35;8.48;;;3.37;;
62123;SDS011;48110;47.532;19.078;2023-08-21T14:09:38;5.55;;;3.40;;
62123;SDS011;48110;47.532;19.078;2023-08-21T14:12:40;4.57;;;3.60;;
62123;SDS011;48110;47.532;19.078;2023-08-21T14:15:44;4.82;;;3.45;;
62123;SDS011;48110;47.532;19.078;2023-08-21T14:18:46;5.43;;;3.60;;
62123;SDS011;48110;47.532;19.078;2023-08-21T14:21:49;5.60;;;3.65;;
62123;SDS011;48110;47.532;19.078;2023-08-21T14:24:52;6.57;;;3.22;;
62123;SDS011;48110;47.532;19.078;2023-08-21T14:27:55;6.62;;;3.67;;
62123;SDS011;48110;47.532;19.078;2023-08-21T14:30:58;4.80;;;4.10;;
62123;SDS011;48110;47.532;19.078;2023-08-21T14:34:02;8.05;;;3.90;;
62123;SDS011;48110;47.532;19.078;2023-08-21T14:37:04;4.75;;;4.22;;
62123;SDS011;48110;47.532;19.078;2023-08-21T14:40:08;9.63;;;4.15;;
62123;SDS011;48110;47.532;19.078;2023-08-21T14:43:12;5.57;;;3.70;;
62123;SDS011;48110;47.532;19.078;2023-08-21T14:46:15;6.85;;;3.60;;
62123;SDS011;48110;47.532;19.078;2023-08-21T14:49:36;6.82;;;3.97;;
62123;SDS011;48110;47.532;19.078;2023-08-21T14:52:39;6.72;;;4.35;;
62123;SDS011;48110;47.532;19.078;2023-08-21T14:55:42;6.60;;;4.15;;
62123;SDS011;48110;47.532;19.078;2023-08-21T14:58:45;6.10;;;4.57;;
62123;SDS011;48110;47.532;19.078;2023-08-21T15:01:48;7.18;;;4.20;;
62123;SDS011;48110;47.532;19.078;2023-08-21T15:04:51;6.28;;;4.30;;
62123;SDS011;48110;47.532;19.078;2023-08-21T15:07:54;8.10;;;4.25;;
62123;SDS011;48110;47.532;19.078;2023-08-21T15:10:57;6.87;;;4.20;;
62123;SDS011;48110;47.532;19.078;2023-08-21T15:14:00;7.05;;;4.30;;
62123;SDS011;48110;47.532;19.078;2023-08-21T15:17:05;9.27;;;4.18;;
62123;SDS011;48110;47.532;19.078;2023-08-21T15:20:13;5.95;;;4.18;;
62123;SDS011;48110;47.532;19.078;2023-08-21T15:23:18;5.43;;;4.12;;
62123;SDS011;48110;47.532;19.078;2023-08-21T15:26:20;6.30;;;4.40;;
62123;SDS011;48110;47.532;19.078;2023-08-21T15:29:24;5.37;;;4.87;;
62123;SDS011;48110;47.532;19.078;2023-08-21T15:32:26;6.53;;;5.28;;
62123;SDS011;48110;47.532;19.078;2023-08-21T15:35:29;6.05;;;4.72;;
62123;SDS011;48110;47.532;19.078;2023-08-21T15:38:32;9.65;;;5.37;;
62123;SDS011;48110;47.532;19.078;2023-08-21T15:41:36;5.87;;;4.75;;
62123;SDS011;48110;47.532;19.078;2023-08-21T15:44:38;8.02;;;5.03;;
62123;SDS011;48110;47.532;19.078;2023-08-21T15:47:41;6.55;;;4.80;;
62123;SDS011;48110;47.532;19.078;2023-08-21T15:50:50;7.30;;;4.80;;
62123;SDS011;48110;47.532;19.078;2023-08-21T15:53:53;5.15;;;4.45;;
62123;SDS011;48110;47.532;19.078;2023-08-21T15:56:56;8.48;;;4.68;;
62123;SDS011;48110;47.532;19.078;2023-08-21T15:59:58;10.05;;;4.65;;
62123;SDS011;48110;47.532;19.078;2023-08-21T16:03:01;7.75;;;4.70;;
62123;SDS011;48110;47.532;19.078;2023-08-21T16:06:06;6.90;;;5.10;;
62123;SDS011;48110;47.532;19.078;2023-08-21T16:09:09;7.40;;;4.90;;
62123;SDS011;48110;47.532;19.078;2023-08-21T16:12:12;5.78;;;4.57;;
62123;SDS011;48110;47.532;19.078;2023-08-21T16:15:14;9.93;;;4.93;;
62123;SDS011;48110;47.532;19.078;2023-08-21T16:18:17;7.07;;;4.30;;
62123;SDS011;48110;47.532;19.078;2023-08-21T16:21:20;4.97;;;3.97;;
62123;SDS011;48110;47.532;19.078;2023-08-21T16:24:23;5.47;;;4.57;;
62123;SDS011;48110;47.532;19.078;2023-08-21T16:27:26;8.90;;;5.12;;
62123;SDS011;48110;47.532;19.078;2023-08-21T16:30:30;7.15;;;4.65;;
62123;SDS011;48110;47.532;19.078;2023-08-21T16:33:32;8.45;;;4.32;;
62123;SDS011;48110;47.532;19.078;2023-08-21T16:36:38;9.07;;;5.45;;
62123;SDS011;48110;47.532;19.078;2023-08-21T16:39:41;8.15;;;5.32;;
62123;SDS011;48110;47.532;19.078;2023-08-21T16:42:44;5.68;;;5.07;;
62123;SDS011;48110;47.532;19.078;2023-08-21T16:45:47;11.35;;;4.85;;
62123;SDS011;48110;47.532;19.078;2023-08-21T16:48:49;10.25;;;5.60;;
62123;SDS011;48110;47.532;19.078;2023-08-21T16:51:52;11.95;;;5.35;;
62123;SDS011;48110;47.532;19.078;2023-08-21T16:54:55;8.50;;;4.68;;
62123;SDS011;48110;47.532;19.078;2023-08-21T16:57:59;11.15;;;7.85;;
62123;SDS011;48110;47.532;19.078;2023-08-21T17:01:03;15.57;;;6.87;;
62123;SDS011;48110;47.532;19.078;2023-08-21T17:04:08;10.88;;;5.37;;
62123;SDS011;48110;47.532;19.078;2023-08-21T17:07:11;6.28;;;5.53;;
62123;SDS011;48110;47.532;19.078;2023-08-21T17:10:14;18.27;;;10.95;;
62123;SDS011;48110;47.532;19.078;2023-08-21T17:13:17;11.00;;;6.75;;
62123;SDS011;48110;47.532;19.078;2023-08-21T17:16:19;10.02;;;4.90;;
62123;SDS011;48110;47.532;19.078;2023-08-21T17:19:23;8.48;;;5.40;;
62123;SDS011;48110;47.532;19.078;2023-08-21T17:22:25;6.00;;;5.10;;
62123;SDS011;48110;47.532;19.078;2023-08-21T17:25:28;7.43;;;5.22;;
62123;SDS011;48110;47.532;19.078;2023-08-21T17:28:31;6.60;;;5.30;;
62123;SDS011;48110;47.532;19.078;2023-08-21T17:31:34;6.07;;;5.25;;
62123;SDS011;48110;47.532;19.078;2023-08-21T17:34:36;10.93;;;6.25;;
62123;SDS011;48110;47.532;19.078;2023-08-21T17:37:39;13.90;;;6.05;;
62123;SDS011;48110;47.532;19.078;2023-08-21T17:40:42;16.62;;;6.65;;
62123;SDS011;48110;47.532;19.078;2023-08-21T17:43:47;14.45;;;6.00;;
62123;SDS011;48110;47.532;19.078;2023-08-21T17:46:49;8.50;;;6.32;;
62123;SDS011;48110;47.532;19.078;2023-08-21T17:49:52;15.20;;;6.80;;
62123;SDS011;48110;47.532;19.078;2023-08-21T17:52:55;15.30;;;6.70;;
62123;SDS011;48110;47.532;19.078;2023-08-21T17:55:58;8.38;;;6.15;;
62123;SDS011;48110;47.532;19.078;2023-08-21T17:59:01;11.75;;;6.07;;
62123;SDS011;48110;47.532;19.078;2023-08-21T18:02:05;17.48;;;5.90;;
62123;SDS011;48110;47.532;19.078;2023-08-21T18:05:09;10.45;;;5.85;;
62123;SDS011;48110;47.532;19.078;2023-08-21T18:08:13;6.97;;;6.28;;
62123;SDS011;48110;47.532;19.078;2023-08-21T18:11:16;12.25;;;5.80;;